createdAt,value
2018-07-01T00:01:45.980Z,0.00
2018-07-01T00:02:45.963Z,0.00
2018-07-01T00:04:44.004Z,0.00
2018-07-01T00:05:43.731Z,0.00
2018-07-01T00:07:48.917Z,0.00
2018-07-01T00:08:48.579Z,0.00
2018-07-01T00:09:48.736Z,0.00
2018-07-01T00:10:48.503Z,0.00
2018-07-01T00:11:48.410Z,0.00
2018-07-01T00:12:48.406Z,0.00
2018-07-01T00:13:48.350Z,0.00
2018-07-01T00:14:48.330Z,0.00
2018-07-01T00:15:48.327Z,0.00
2018-07-01T00:16:48.269Z,0.00
2018-07-01T00:17:48.243Z,0.00
2018-07-01T00:18:48.243Z,0.00
2018-07-01T00:19:48.224Z,0.00
2018-07-01T00:20:48.175Z,0.00
2018-07-01T00:21:48.163Z,0.00
2018-07-01T00:22:48.126Z,0.00
2018-07-01T00:23:48.102Z,0.00
2018-07-01T00:24:48.110Z,0.00
2018-07-01T00:25:48.056Z,0.00
2018-07-01T00:26:47.993Z,0.00
2018-07-01T00:27:47.977Z,0.00
2018-07-01T00:28:47.969Z,0.00
2018-07-01T00:29:47.969Z,0.00
2018-07-01T00:30:47.870Z,0.00
2018-07-01T00:31:47.877Z,0.00
2018-07-01T00:32:47.906Z,0.00
2018-07-01T00:33:47.862Z,0.00
2018-07-01T00:34:47.831Z,0.00
2018-07-01T00:35:47.808Z,0.00
2018-07-01T00:36:47.797Z,0.00
2018-07-01T00:37:47.752Z,0.00
2018-07-01T00:38:47.715Z,0.00
2018-07-01T00:39:47.733Z,0.00
2018-07-01T00:40:47.706Z,0.00
2018-07-01T00:41:47.618Z,0.00
2018-07-01T00:42:47.652Z,0.00
2018-07-01T00:43:47.623Z,0.00
2018-07-01T00:44:47.582Z,0.00
2018-07-01T00:45:47.508Z,0.00
2018-07-01T00:46:47.542Z,0.00
2018-07-01T00:47:47.500Z,0.00
2018-07-01T00:48:47.416Z,0.00
2018-07-01T00:49:47.421Z,0.00
2018-07-01T00:50:47.459Z,0.00
2018-07-01T00:51:47.412Z,0.00
2018-07-01T00:52:47.400Z,0.00
2018-07-01T00:53:47.365Z,0.00
2018-07-01T00:54:47.314Z,0.00
2018-07-01T00:55:47.347Z,0.00
2018-07-01T00:56:47.296Z,0.00
2018-07-01T00:57:47.196Z,0.00
2018-07-01T00:58:47.184Z,0.00
2018-07-01T00:59:47.184Z,0.00
2018-07-01T01:00:47.169Z,0.00
2018-07-01T01:01:47.145Z,0.00
2018-07-01T01:02:47.078Z,0.00
2018-07-01T01:03:47.093Z,0.00
2018-07-01T01:04:47.078Z,0.00
2018-07-01T01:05:47.067Z,0.00
2018-07-01T01:06:47.024Z,0.00
2018-07-01T01:07:46.965Z,0.00
2018-07-01T01:08:46.950Z,0.00
2018-07-01T01:09:46.959Z,0.00
2018-07-01T01:10:46.934Z,0.00
2018-07-01T01:11:47.038Z,0.00
2018-07-01T01:12:46.812Z,0.00
2018-07-01T01:13:46.805Z,0.00
2018-07-01T01:14:46.817Z,0.00
2018-07-01T01:15:46.810Z,0.00
2018-07-01T01:16:46.740Z,0.00
2018-07-01T01:18:00.962Z,0.00
2018-07-01T01:20:08.837Z,0.00
2018-07-01T01:21:08.593Z,0.00
2018-07-01T01:23:13.136Z,0.00
2018-07-01T01:24:12.904Z,0.00
2018-07-01T01:26:17.828Z,0.00
2018-07-01T01:27:17.705Z,0.00
2018-07-01T01:28:17.841Z,0.00
2018-07-01T01:29:17.642Z,0.00
2018-07-01T01:30:17.554Z,0.00
2018-07-01T01:31:17.572Z,0.00
2018-07-01T01:32:17.546Z,0.00
2018-07-01T01:33:17.511Z,0.00
2018-07-01T01:34:17.432Z,0.00
2018-07-01T01:35:17.483Z,0.00
2018-07-01T01:36:17.388Z,0.00
2018-07-01T01:37:17.411Z,0.00
2018-07-01T01:38:17.392Z,0.00
2018-07-01T01:39:17.363Z,0.00
2018-07-01T01:40:17.374Z,0.00
2018-07-01T01:41:17.330Z,0.00
2018-07-01T01:42:17.317Z,0.00
2018-07-01T01:43:17.273Z,0.00
2018-07-01T01:44:17.198Z,0.00
2018-07-01T01:45:17.193Z,0.00
2018-07-01T01:46:17.200Z,0.00
2018-07-01T01:47:17.155Z,0.00
2018-07-01T01:48:17.146Z,0.00
2018-07-01T01:49:17.133Z,0.00
2018-07-01T01:50:17.066Z,0.00
2018-07-01T01:51:17.031Z,0.00
2018-07-01T01:52:17.031Z,0.00
2018-07-01T01:53:17.017Z,0.00
2018-07-01T01:54:16.972Z,0.00
2018-07-01T01:55:16.976Z,0.00
2018-07-01T01:56:16.929Z,0.00
2018-07-01T01:57:16.860Z,0.00
2018-07-01T01:58:16.889Z,0.00
2018-07-01T01:59:16.820Z,0.00
2018-07-01T02:00:16.835Z,0.00
2018-07-01T02:01:16.794Z,0.00
2018-07-01T02:02:16.761Z,0.00
2018-07-01T02:03:16.753Z,0.00
2018-07-01T02:04:16.722Z,0.00
2018-07-01T02:05:16.734Z,0.00
2018-07-01T02:06:16.733Z,0.00
2018-07-01T02:07:16.666Z,0.00
2018-07-01T02:08:16.628Z,0.00
2018-07-01T02:09:16.609Z,0.00
2018-07-01T02:10:16.586Z,0.00
2018-07-01T02:11:16.480Z,0.00
2018-07-01T02:12:16.506Z,0.00
2018-07-01T02:13:16.436Z,0.00
2018-07-01T02:14:17.327Z,0.00
2018-07-01T02:15:16.420Z,0.00
2018-07-01T02:16:16.400Z,0.00
2018-07-01T02:17:16.335Z,0.00
2018-07-01T02:18:16.381Z,0.00
2018-07-01T02:19:16.305Z,0.00
2018-07-01T02:20:16.313Z,0.00
2018-07-01T02:21:16.305Z,0.00
2018-07-01T02:22:16.276Z,0.00
2018-07-01T02:23:16.215Z,0.00
2018-07-01T02:24:16.205Z,0.00
2018-07-01T02:25:16.176Z,0.00
2018-07-01T02:26:16.189Z,0.00
2018-07-01T02:27:16.817Z,0.00
2018-07-01T02:28:16.105Z,0.00
2018-07-01T02:29:16.078Z,0.00
2018-07-01T02:30:16.057Z,0.00
2018-07-01T02:31:16.019Z,0.00
2018-07-01T02:32:15.994Z,0.00
2018-07-01T02:33:15.979Z,0.00
2018-07-01T02:34:15.953Z,0.00
2018-07-01T02:35:15.968Z,0.00
2018-07-01T02:36:15.862Z,0.00
2018-07-01T02:37:15.857Z,0.00
2018-07-01T02:38:34.014Z,0.00
2018-07-01T02:40:20.423Z,0.00
2018-07-01T02:41:20.192Z,0.00
2018-07-01T02:43:24.953Z,0.00
2018-07-01T02:44:24.829Z,0.00
2018-07-01T02:46:47.168Z,0.00
2018-07-01T02:47:47.010Z,0.00
2018-07-01T02:49:49.749Z,0.00
2018-07-01T02:50:49.624Z,0.00
2018-07-01T02:52:53.162Z,0.00
2018-07-01T02:53:53.016Z,0.00
2018-07-01T02:56:14.737Z,0.00
2018-07-01T02:56:58.766Z,0.00
2018-07-01T02:59:05.043Z,0.00
2018-07-01T03:00:04.439Z,0.00
2018-07-01T03:02:09.320Z,0.00
2018-07-01T03:03:08.944Z,0.00
2018-07-01T03:05:17.013Z,0.00
2018-07-01T03:06:16.795Z,0.00
2018-07-01T03:08:24.800Z,5.63
2018-07-01T03:09:24.662Z,5.63
2018-07-01T03:11:21.297Z,5.63
2018-07-01T03:12:20.508Z,5.63
2018-07-01T03:14:24.049Z,5.63
2018-07-01T03:15:23.832Z,11.25
2018-07-01T03:17:29.320Z,11.25
2018-07-01T03:18:29.144Z,11.25
2018-07-01T03:20:32.767Z,16.88
2018-07-01T03:21:32.030Z,16.88
2018-07-01T03:23:29.588Z,16.88
2018-07-01T03:24:29.445Z,22.50
2018-07-01T03:26:32.637Z,22.50
2018-07-01T03:27:32.280Z,22.50
2018-07-01T03:29:40.343Z,28.13
2018-07-01T03:30:40.307Z,28.13
2018-07-01T03:32:50.777Z,33.75
2018-07-01T03:33:50.755Z,33.75
2018-07-01T03:35:55.119Z,39.38
2018-07-01T03:36:55.044Z,39.38
2018-07-01T03:38:52.706Z,45.00
2018-07-01T03:39:52.382Z,45.00
2018-07-01T03:41:53.772Z,50.63
2018-07-01T03:42:52.781Z,50.63
2018-07-01T03:45:00.754Z,56.25
2018-07-01T03:46:16.825Z,56.25
2018-07-01T03:48:03.726Z,61.88
2018-07-01T03:49:03.421Z,61.88
2018-07-01T03:51:09.902Z,67.50
2018-07-01T03:52:09.240Z,67.50
2018-07-01T03:54:13.152Z,73.13
2018-07-01T03:55:13.078Z,73.13
2018-07-01T03:57:16.538Z,78.75
2018-07-01T03:58:16.329Z,78.75
2018-07-01T04:00:11.456Z,84.38
2018-07-01T04:01:10.318Z,84.38
2018-07-01T04:03:13.164Z,90.00
2018-07-01T04:04:13.114Z,90.00
2018-07-01T04:06:18.423Z,95.63
2018-07-01T04:07:18.573Z,95.63
2018-07-01T04:09:28.836Z,101.25
2018-07-01T04:10:28.910Z,101.25
2018-07-01T04:12:27.034Z,106.88
2018-07-01T04:13:26.776Z,106.88
2018-07-01T04:15:31.003Z,112.50
2018-07-01T04:16:30.783Z,112.50
2018-07-01T04:18:35.430Z,118.13
2018-07-01T04:19:35.257Z,118.13
2018-07-01T04:21:33.181Z,123.75
2018-07-01T04:22:32.978Z,123.75
2018-07-01T04:24:36.360Z,129.38
2018-07-01T04:25:34.422Z,129.38
2018-07-01T04:27:35.095Z,135.00
2018-07-01T04:28:34.602Z,135.00
2018-07-01T04:30:42.541Z,140.63
2018-07-01T04:31:42.242Z,140.63
2018-07-01T04:33:42.950Z,140.63
2018-07-01T04:34:43.052Z,146.25
2018-07-01T04:36:48.219Z,146.25
2018-07-01T04:37:48.436Z,151.88
2018-07-01T04:39:46.529Z,151.88
2018-07-01T04:40:44.365Z,151.88
2018-07-01T04:42:38.508Z,157.50
2018-07-01T04:43:38.090Z,157.50
2018-07-01T04:45:41.261Z,163.13
2018-07-01T04:46:41.310Z,163.13
2018-07-01T04:47:41.172Z,163.13
2018-07-01T04:48:40.868Z,163.13
2018-07-01T04:49:41.202Z,163.13
2018-07-01T04:50:41.694Z,168.75
2018-07-01T04:51:40.752Z,168.75
2018-07-01T04:52:40.706Z,168.75
2018-07-01T04:53:40.702Z,168.75
2018-07-01T04:54:40.749Z,174.38
2018-07-01T04:55:40.559Z,168.75
2018-07-01T04:57:00.904Z,168.75
2018-07-01T04:58:47.247Z,174.38
2018-07-01T04:59:46.413Z,174.38
2018-07-01T05:01:49.846Z,174.38
2018-07-01T05:02:49.549Z,174.38
2018-07-01T05:04:54.221Z,180.00
2018-07-01T05:05:53.989Z,180.00
2018-07-01T05:06:53.561Z,180.00
2018-07-01T05:07:53.482Z,180.00
2018-07-01T05:08:54.273Z,185.63
2018-07-01T05:09:53.418Z,185.63
2018-07-01T05:10:53.406Z,185.63
2018-07-01T05:11:53.360Z,185.63
2018-07-01T05:12:53.332Z,185.63
2018-07-01T05:13:53.331Z,185.63
2018-07-01T05:14:53.361Z,191.25
2018-07-01T05:15:53.257Z,191.25
2018-07-01T05:16:53.241Z,191.25
2018-07-01T05:17:53.350Z,191.25
2018-07-01T05:18:53.175Z,191.25
2018-07-01T05:19:53.180Z,191.25
2018-07-01T05:20:53.124Z,196.88
2018-07-01T05:21:53.106Z,196.88
2018-07-01T05:22:53.080Z,196.88
2018-07-01T05:23:53.058Z,196.88
2018-07-01T05:24:53.032Z,196.88
2018-07-01T05:25:52.999Z,196.88
2018-07-01T05:26:53.021Z,196.88
2018-07-01T05:27:52.955Z,202.50
2018-07-01T05:28:52.924Z,202.50
2018-07-01T05:29:52.892Z,202.50
2018-07-01T05:30:52.882Z,202.50
2018-07-01T05:31:52.946Z,202.50
2018-07-01T05:32:52.823Z,202.50
2018-07-01T05:33:52.794Z,202.50
2018-07-01T05:34:52.772Z,202.50
2018-07-01T05:35:52.805Z,208.13
2018-07-01T05:36:52.718Z,208.13
2018-07-01T05:37:52.680Z,208.13
2018-07-01T05:38:52.656Z,208.13
2018-07-01T05:39:52.640Z,208.13
2018-07-01T05:40:52.642Z,208.13
2018-07-01T05:41:52.583Z,208.13
2018-07-01T05:42:52.565Z,208.13
2018-07-01T05:43:52.526Z,208.13
2018-07-01T05:44:52.500Z,213.75
2018-07-01T05:45:52.480Z,213.75
2018-07-01T05:46:52.475Z,213.75
2018-07-01T05:47:52.437Z,213.75
2018-07-01T05:48:52.401Z,213.75
2018-07-01T05:49:52.375Z,213.75
2018-07-01T05:50:52.345Z,213.75
2018-07-01T05:51:52.316Z,213.75
2018-07-01T05:52:52.310Z,213.75
2018-07-01T05:53:52.273Z,213.75
2018-07-01T05:54:52.245Z,219.38
2018-07-01T05:55:52.229Z,219.38
2018-07-01T05:56:52.195Z,219.38
2018-07-01T05:57:52.173Z,219.38
2018-07-01T05:58:52.147Z,219.38
2018-07-01T05:59:52.117Z,219.38
2018-07-01T06:00:52.096Z,219.38
2018-07-01T06:01:52.095Z,219.38
2018-07-01T06:02:52.034Z,219.38
2018-07-01T06:03:52.011Z,219.38
2018-07-01T06:05:05.766Z,219.38
2018-07-01T06:06:51.403Z,219.38
2018-07-01T06:07:51.282Z,219.38
2018-07-01T06:08:50.966Z,225.00
2018-07-01T06:09:51.013Z,219.38
2018-07-01T06:10:51.065Z,219.38
2018-07-01T06:11:51.297Z,225.00
2018-07-01T06:12:50.886Z,225.00
2018-07-01T06:13:50.951Z,225.00
2018-07-01T06:14:50.804Z,225.00
2018-07-01T06:15:50.801Z,225.00
2018-07-01T06:16:50.880Z,225.00
2018-07-01T06:17:50.767Z,225.00
2018-07-01T06:18:50.700Z,225.00
2018-07-01T06:19:50.700Z,225.00
2018-07-01T06:20:50.709Z,225.00
2018-07-01T06:21:50.628Z,225.00
2018-07-01T06:22:50.636Z,225.00
2018-07-01T06:23:50.579Z,225.00
2018-07-01T06:24:50.550Z,225.00
2018-07-01T06:25:50.560Z,225.00
2018-07-01T06:26:50.502Z,225.00
2018-07-01T06:27:50.470Z,230.63
2018-07-01T06:28:50.459Z,230.63
2018-07-01T06:29:50.425Z,230.63
2018-07-01T06:30:50.425Z,230.63
2018-07-01T06:31:51.896Z,230.63
2018-07-01T06:32:50.365Z,230.63
2018-07-01T06:33:50.327Z,230.63
2018-07-01T06:34:50.311Z,230.63
2018-07-01T06:35:50.274Z,230.63
2018-07-01T06:36:50.749Z,230.63
2018-07-01T06:37:50.284Z,230.63
2018-07-01T06:38:50.194Z,230.63
2018-07-01T06:39:50.170Z,230.63
2018-07-01T06:40:50.143Z,230.63
2018-07-01T06:41:50.218Z,230.63
2018-07-01T06:42:50.106Z,230.63
2018-07-01T06:43:50.168Z,230.63
2018-07-01T06:44:50.053Z,230.63
2018-07-01T06:45:50.024Z,230.63
2018-07-01T06:46:50.005Z,236.25
2018-07-01T06:47:49.998Z,230.63
2018-07-01T06:48:49.944Z,230.63
2018-07-01T06:49:49.926Z,230.63
2018-07-01T06:50:49.908Z,230.63
2018-07-01T06:51:49.870Z,230.63
2018-07-01T06:52:49.841Z,230.63
2018-07-01T06:53:49.839Z,230.63
2018-07-01T06:54:49.808Z,230.63
2018-07-01T06:55:49.832Z,230.63
2018-07-01T06:56:49.749Z,230.63
2018-07-01T06:57:49.807Z,236.25
2018-07-01T06:58:49.715Z,230.63
2018-07-01T06:59:49.667Z,230.63
2018-07-01T07:00:49.699Z,230.63
2018-07-01T07:01:49.624Z,230.63
2018-07-01T07:02:49.602Z,230.63
2018-07-01T07:03:49.573Z,230.63
2018-07-01T07:04:49.549Z,230.63
2018-07-01T07:05:49.525Z,236.25
2018-07-01T07:06:49.552Z,236.25
2018-07-01T07:07:49.542Z,236.25
2018-07-01T07:08:49.448Z,236.25
2018-07-01T07:09:49.427Z,236.25
2018-07-01T07:10:49.404Z,236.25
2018-07-01T07:11:49.382Z,236.25
2018-07-01T07:12:49.356Z,236.25
2018-07-01T07:13:49.353Z,236.25
2018-07-01T07:14:49.320Z,236.25
2018-07-01T07:15:49.283Z,236.25
2018-07-01T07:16:49.256Z,236.25
2018-07-01T07:17:49.230Z,241.88
2018-07-01T07:18:49.203Z,236.25
2018-07-01T07:19:49.181Z,241.88
2018-07-01T07:20:49.162Z,241.88
2018-07-01T07:21:49.190Z,241.88
2018-07-01T07:22:49.100Z,241.88
2018-07-01T07:23:49.124Z,241.88
2018-07-01T07:24:49.069Z,241.88
2018-07-01T07:25:49.035Z,241.88
2018-07-01T07:26:49.020Z,241.88
2018-07-01T07:27:48.990Z,241.88
2018-07-01T07:28:48.955Z,241.88
2018-07-01T07:29:48.945Z,241.88
2018-07-01T07:30:48.943Z,241.88
2018-07-01T07:31:48.889Z,241.88
2018-07-01T07:32:48.861Z,241.88
2018-07-01T07:33:48.857Z,241.88
2018-07-01T07:34:48.806Z,241.88
2018-07-01T07:35:48.800Z,247.50
2018-07-01T07:36:48.766Z,247.50
2018-07-01T07:37:48.747Z,247.50
2018-07-01T07:38:48.715Z,247.50
2018-07-01T07:39:48.690Z,247.50
2018-07-01T07:40:48.673Z,247.50
2018-07-01T07:41:48.648Z,247.50
2018-07-01T07:42:48.622Z,247.50
2018-07-01T07:43:48.658Z,247.50
2018-07-01T07:44:48.601Z,253.13
2018-07-01T07:45:48.558Z,253.13
2018-07-01T07:46:48.542Z,253.13
2018-07-01T07:47:48.494Z,253.13
2018-07-01T07:48:48.477Z,253.13
2018-07-01T07:49:48.456Z,253.13
2018-07-01T07:50:48.438Z,253.13
2018-07-01T07:51:48.403Z,253.13
2018-07-01T07:53:15.860Z,253.13
2018-07-01T07:53:48.415Z,253.13
2018-07-01T07:54:48.358Z,253.13
2018-07-01T07:55:48.999Z,253.13
2018-07-01T07:56:48.345Z,258.75
2018-07-01T07:57:48.314Z,258.75
2018-07-01T07:58:48.239Z,258.75
2018-07-01T07:59:48.292Z,258.75
2018-07-01T08:00:48.207Z,258.75
2018-07-01T08:01:48.170Z,264.38
2018-07-01T08:02:48.142Z,258.75
2018-07-01T08:03:48.141Z,258.75
2018-07-01T08:04:48.099Z,258.75
2018-07-01T08:05:48.086Z,258.75
2018-07-01T08:06:48.061Z,264.38
2018-07-01T08:07:48.059Z,264.38
2018-07-01T08:08:48.004Z,264.38
2018-07-01T08:09:48.009Z,264.38
2018-07-01T08:10:48.095Z,264.38
2018-07-01T08:11:47.948Z,264.38
2018-07-01T08:12:48.008Z,264.38
2018-07-01T08:13:47.952Z,264.38
2018-07-01T08:15:10.432Z,264.38
2018-07-01T08:15:50.522Z,270.00
2018-07-01T08:16:48.394Z,270.00
2018-07-01T08:17:47.783Z,270.00
2018-07-01T08:18:47.771Z,270.00
2018-07-01T08:19:47.750Z,270.00
2018-07-01T08:20:47.727Z,270.00
2018-07-01T08:21:47.703Z,264.38
2018-07-01T08:22:47.677Z,264.38
2018-07-01T08:23:47.651Z,264.38
2018-07-01T08:24:47.621Z,270.00
2018-07-01T08:25:47.602Z,270.00
2018-07-01T08:26:47.631Z,270.00
2018-07-01T08:27:47.561Z,270.00
2018-07-01T08:28:47.546Z,270.00
2018-07-01T08:29:47.606Z,275.63
2018-07-01T08:30:47.546Z,275.63
2018-07-01T08:31:47.557Z,275.63
2018-07-01T08:32:47.536Z,275.63
2018-07-01T08:33:47.438Z,275.63
2018-07-01T08:34:49.964Z,275.63
2018-07-01T08:35:47.526Z,275.63
2018-07-01T08:36:47.403Z,281.25
2018-07-01T08:37:47.334Z,275.63
2018-07-01T08:38:47.300Z,281.25
2018-07-01T08:39:47.306Z,281.25
2018-07-01T08:40:47.265Z,281.25
2018-07-01T08:41:47.293Z,281.25
2018-07-01T08:42:47.225Z,281.25
2018-07-01T08:43:47.195Z,281.25
2018-07-01T08:44:47.161Z,286.88
2018-07-01T08:45:47.146Z,286.88
2018-07-01T08:46:47.128Z,286.88
2018-07-01T08:47:47.105Z,286.88
2018-07-01T08:48:47.980Z,286.88
2018-07-01T08:49:47.044Z,286.88
2018-07-01T08:50:47.145Z,286.88
2018-07-01T08:51:47.039Z,292.50
2018-07-01T08:52:47.053Z,292.50
2018-07-01T08:53:46.965Z,292.50
2018-07-01T08:54:46.986Z,292.50
2018-07-01T08:55:46.967Z,292.50
2018-07-01T08:56:46.890Z,292.50
2018-07-01T08:57:46.866Z,292.50
2018-07-01T08:58:46.886Z,292.50
2018-07-01T08:59:46.831Z,298.13
2018-07-01T09:00:46.811Z,298.13
2018-07-01T09:01:46.793Z,298.13
2018-07-01T09:03:09.060Z,298.13
2018-07-01T09:04:47.377Z,298.13
2018-07-01T09:05:47.354Z,298.13
2018-07-01T09:07:43.526Z,298.13
2018-07-01T09:08:44.223Z,298.13
2018-07-01T09:10:46.317Z,298.13
2018-07-01T09:11:46.290Z,298.13
2018-07-01T09:13:49.572Z,303.75
2018-07-01T09:14:48.984Z,303.75
2018-07-01T09:15:49.373Z,303.75
2018-07-01T09:16:48.830Z,303.75
2018-07-01T09:17:48.782Z,303.75
2018-07-01T09:18:49.630Z,303.75
2018-07-01T09:19:48.752Z,303.75
2018-07-01T09:20:48.717Z,303.75
2018-07-01T09:21:48.698Z,303.75
2018-07-01T09:22:48.692Z,309.38
2018-07-01T09:23:48.653Z,309.38
2018-07-01T09:24:48.633Z,309.38
2018-07-01T09:25:48.613Z,309.38
2018-07-01T09:26:48.660Z,309.38
2018-07-01T09:27:48.560Z,303.75
2018-07-01T09:28:48.609Z,303.75
2018-07-01T09:29:48.529Z,309.38
2018-07-01T09:30:48.496Z,309.38
2018-07-01T09:31:48.479Z,309.38
2018-07-01T09:32:48.479Z,309.38
2018-07-01T09:33:48.438Z,315.00
2018-07-01T09:34:48.420Z,309.38
2018-07-01T09:35:48.394Z,309.38
2018-07-01T09:36:48.387Z,309.38
2018-07-01T09:37:48.346Z,315.00
2018-07-01T09:38:48.351Z,315.00
2018-07-01T09:39:48.335Z,315.00
2018-07-01T09:40:48.305Z,315.00
2018-07-01T09:41:48.259Z,315.00
2018-07-01T09:42:48.248Z,315.00
2018-07-01T09:43:48.224Z,315.00
2018-07-01T09:44:48.193Z,320.63
2018-07-01T09:45:48.188Z,315.00
2018-07-01T09:46:48.168Z,315.00
2018-07-01T09:47:48.231Z,320.63
2018-07-01T09:48:48.197Z,320.63
2018-07-01T09:49:48.107Z,320.63
2018-07-01T09:50:48.162Z,320.63
2018-07-01T09:51:48.052Z,320.63
2018-07-01T09:52:48.029Z,320.63
2018-07-01T09:53:48.031Z,320.63
2018-07-01T09:54:48.026Z,320.63
2018-07-01T09:55:47.968Z,320.63
2018-07-01T09:56:47.937Z,320.63
2018-07-01T09:57:47.944Z,320.63
2018-07-01T09:58:47.910Z,326.25
2018-07-01T09:59:47.878Z,326.25
2018-07-01T10:00:47.882Z,326.25
2018-07-01T10:01:47.839Z,326.25
2018-07-01T10:02:47.863Z,326.25
2018-07-01T10:03:47.798Z,326.25
2018-07-01T10:04:47.776Z,326.25
2018-07-01T10:05:47.773Z,326.25
2018-07-01T10:06:47.812Z,326.25
2018-07-01T10:07:47.713Z,331.88
2018-07-01T10:08:47.686Z,326.25
2018-07-01T10:09:47.735Z,331.88
2018-07-01T10:10:47.643Z,331.88
2018-07-01T10:11:47.619Z,331.88
2018-07-01T10:12:47.607Z,331.88
2018-07-01T10:13:47.576Z,331.88
2018-07-01T10:14:47.565Z,331.88
2018-07-01T10:15:47.539Z,331.88
2018-07-01T10:16:47.529Z,331.88
2018-07-01T10:17:47.521Z,331.88
2018-07-01T10:18:47.543Z,331.88
2018-07-01T10:19:47.462Z,331.88
2018-07-01T10:20:47.508Z,331.88
2018-07-01T10:21:47.409Z,337.50
2018-07-01T10:22:47.389Z,337.50
2018-07-01T10:23:47.377Z,337.50
2018-07-01T10:24:47.428Z,337.50
2018-07-01T10:25:47.339Z,337.50
2018-07-01T10:26:47.311Z,337.50
2018-07-01T10:27:47.302Z,337.50
2018-07-01T10:28:47.265Z,337.50
2018-07-01T10:29:47.259Z,337.50
2018-07-01T10:30:47.228Z,337.50
2018-07-01T10:31:47.213Z,337.50
2018-07-01T10:32:47.180Z,343.13
2018-07-01T10:33:47.160Z,343.13
2018-07-01T10:34:47.154Z,343.13
2018-07-01T10:35:47.135Z,343.13
2018-07-01T10:36:47.111Z,343.13
2018-07-01T10:37:47.083Z,343.13
2018-07-01T10:38:47.072Z,343.13
2018-07-01T10:39:47.046Z,343.13
2018-07-01T10:40:59.629Z,343.13
2018-07-01T10:42:53.089Z,348.75
2018-07-01T10:43:52.887Z,354.38
2018-07-01T10:46:01.402Z,348.75
2018-07-01T10:47:00.856Z,348.75
2018-07-01T10:49:13.562Z,348.75
2018-07-01T10:50:13.594Z,348.75
2018-07-01T10:52:16.434Z,348.75
2018-07-01T10:53:16.408Z,354.38
2018-07-01T10:55:24.298Z,354.38
2018-07-01T10:56:24.354Z,354.38
2018-07-01T10:58:30.128Z,354.38
2018-07-01T10:59:30.067Z,354.38
2018-07-01T11:01:33.443Z,360.00
2018-07-01T11:02:33.463Z,360.00
2018-07-01T11:04:29.500Z,360.00
2018-07-01T11:05:29.381Z,360.00
2018-07-01T11:07:32.708Z,360.00
2018-07-01T11:08:32.578Z,360.00
2018-07-01T11:10:48.844Z,371.25
2018-07-01T11:11:48.833Z,365.63
2018-07-01T11:13:53.078Z,365.63
2018-07-01T11:14:53.016Z,365.63
2018-07-01T11:16:55.892Z,365.63
2018-07-01T11:17:55.836Z,371.25
2018-07-01T11:20:16.642Z,365.63
2018-07-01T11:21:16.606Z,371.25
2018-07-01T11:23:21.386Z,371.25
2018-07-01T11:24:21.673Z,371.25
2018-07-01T11:26:22.737Z,371.25
2018-07-01T11:27:22.612Z,376.88
2018-07-01T11:29:26.814Z,376.88
2018-07-01T11:30:26.838Z,376.88
2018-07-01T11:31:26.791Z,376.88
2018-07-01T11:32:27.241Z,376.88
2018-07-01T11:33:26.705Z,382.50
2018-07-01T11:34:26.703Z,478.13
2018-07-01T11:35:26.664Z,624.38
2018-07-01T11:36:26.688Z,697.50
2018-07-01T11:37:26.623Z,725.63
2018-07-01T11:38:26.614Z,720.00
2018-07-01T11:39:26.598Z,742.50
2018-07-01T11:40:26.581Z,759.38
2018-07-01T11:41:26.564Z,759.38
2018-07-01T11:42:26.545Z,776.25
2018-07-01T11:43:26.541Z,804.38
2018-07-01T11:44:26.515Z,855.00
2018-07-01T11:45:26.467Z,916.88
2018-07-01T11:46:26.444Z,1012.50
2018-07-01T11:47:26.443Z,1108.13
2018-07-01T11:48:26.416Z,1203.75
2018-07-01T11:49:26.401Z,1333.13
2018-07-01T11:50:26.391Z,1558.13
2018-07-01T11:51:26.368Z,1856.25
2018-07-01T11:52:26.549Z,2514.38
2018-07-01T11:53:26.352Z,3262.50
2018-07-01T11:54:26.319Z,3341.25
2018-07-01T11:55:26.378Z,3200.63
2018-07-01T11:56:26.280Z,3127.50
2018-07-01T11:57:26.330Z,3116.25
2018-07-01T11:58:26.260Z,3105.00
2018-07-01T11:59:26.225Z,3183.75
2018-07-01T12:00:26.214Z,3487.50
2018-07-01T12:01:26.200Z,3774.38
2018-07-01T12:02:26.184Z,4162.50
2018-07-01T12:03:26.170Z,4702.50
2018-07-01T12:04:26.162Z,4921.88
2018-07-01T12:05:26.134Z,5276.25
2018-07-01T12:06:26.127Z,6418.13
2018-07-01T12:07:26.102Z,7441.88
2018-07-01T12:08:26.133Z,7548.75
2018-07-01T12:09:26.068Z,7385.63
2018-07-01T12:10:26.060Z,7087.50
2018-07-01T12:11:26.042Z,6412.50
2018-07-01T12:12:26.039Z,5298.75
2018-07-01T12:13:26.016Z,4786.88
2018-07-01T12:14:25.989Z,4511.25
2018-07-01T12:15:25.995Z,4246.88
2018-07-01T12:16:25.972Z,3886.88
2018-07-01T12:17:25.960Z,3841.88
2018-07-01T12:18:25.997Z,3864.38
2018-07-01T12:19:25.919Z,3526.88
2018-07-01T12:20:25.920Z,3234.38
2018-07-01T12:21:25.904Z,3172.50
2018-07-01T12:22:25.893Z,3110.63
2018-07-01T12:23:25.951Z,3127.50
2018-07-01T12:24:25.853Z,3178.13
2018-07-01T12:25:25.864Z,2975.63
2018-07-01T12:26:25.883Z,2896.88
2018-07-01T12:27:25.836Z,2953.13
2018-07-01T12:28:25.797Z,2896.88
2018-07-01T12:29:25.786Z,2745.00
2018-07-01T12:30:25.786Z,2660.63
2018-07-01T12:31:25.759Z,2632.50
2018-07-01T12:32:25.754Z,2638.13
2018-07-01T12:33:25.733Z,2700.00
2018-07-01T12:34:25.737Z,2863.13
2018-07-01T12:35:25.716Z,2896.88
2018-07-01T12:36:25.710Z,2666.25
2018-07-01T12:37:25.694Z,2666.25
2018-07-01T12:38:25.674Z,2711.25
2018-07-01T12:39:25.646Z,2666.25
2018-07-01T12:40:25.641Z,2784.38
2018-07-01T12:41:25.660Z,2700.00
2018-07-01T12:42:25.761Z,2508.75
2018-07-01T12:43:25.603Z,2424.38
2018-07-01T12:44:25.592Z,2390.63
2018-07-01T12:45:25.574Z,2379.38
2018-07-01T12:46:25.645Z,2430.00
2018-07-01T12:47:25.556Z,2598.75
2018-07-01T12:48:29.461Z,2700.00
2018-07-01T12:49:25.527Z,2626.88
2018-07-01T12:50:25.510Z,2694.38
2018-07-01T12:51:25.504Z,2784.38
2018-07-01T12:52:25.488Z,2790.00
2018-07-01T12:53:25.502Z,2812.50
2018-07-01T12:54:25.468Z,2885.63
2018-07-01T12:55:25.673Z,2880.00
2018-07-01T12:56:25.501Z,2992.50
2018-07-01T12:57:25.545Z,2986.88
2018-07-01T12:58:25.436Z,3009.38
2018-07-01T12:59:25.411Z,3054.38
2018-07-01T13:00:25.398Z,3043.13
2018-07-01T13:01:25.384Z,3262.50
2018-07-01T13:02:25.389Z,3465.00
2018-07-01T13:03:25.362Z,3515.63
2018-07-01T13:04:25.387Z,3695.63
2018-07-01T13:05:25.333Z,3892.50
2018-07-01T13:06:25.325Z,4185.00
2018-07-01T13:07:25.319Z,4730.63
2018-07-01T13:08:25.306Z,5107.50
2018-07-01T13:09:25.318Z,5130.00
2018-07-01T13:10:25.275Z,5293.13
2018-07-01T13:11:25.260Z,5355.00
2018-07-01T13:12:25.258Z,5068.13
2018-07-01T13:13:25.246Z,4758.75
2018-07-01T13:14:25.256Z,4483.13
2018-07-01T13:15:25.241Z,4072.50
2018-07-01T13:16:25.351Z,3442.50
2018-07-01T13:17:25.202Z,2947.50
2018-07-01T13:18:25.214Z,2761.88
2018-07-01T13:19:25.187Z,2694.38
2018-07-01T13:20:25.170Z,2649.38
2018-07-01T13:21:25.162Z,2598.75
2018-07-01T13:22:25.146Z,2570.63
2018-07-01T13:23:25.166Z,2553.75
2018-07-01T13:24:25.125Z,2553.75
2018-07-01T13:25:25.121Z,2587.50
2018-07-01T13:26:25.124Z,2610.00
2018-07-01T13:27:25.098Z,2626.88
2018-07-01T13:28:25.094Z,2655.00
2018-07-01T13:29:25.096Z,2660.63
2018-07-01T13:30:25.064Z,2671.88
2018-07-01T13:31:25.065Z,2694.38
2018-07-01T13:32:25.054Z,2728.13
2018-07-01T13:33:25.047Z,2767.50
2018-07-01T13:34:25.040Z,2784.38
2018-07-01T13:35:25.013Z,2801.25
2018-07-01T13:36:25.014Z,2801.25
2018-07-01T13:37:25.001Z,2823.75
2018-07-01T13:38:25.015Z,2818.13
2018-07-01T13:39:24.984Z,2829.38
2018-07-01T13:40:24.973Z,2823.75
2018-07-01T13:41:24.961Z,2806.88
2018-07-01T13:42:24.953Z,2806.88
2018-07-01T13:43:24.943Z,2806.88
2018-07-01T13:44:24.943Z,2795.63
2018-07-01T13:45:24.926Z,2801.25
2018-07-01T13:46:24.936Z,2767.50
2018-07-01T13:47:24.918Z,2767.50
2018-07-01T13:48:24.906Z,2750.63
2018-07-01T13:49:24.888Z,2722.50
2018-07-01T13:50:24.894Z,2716.88
2018-07-01T13:51:24.892Z,2700.00
2018-07-01T13:52:24.871Z,2688.75
2018-07-01T13:53:24.850Z,2671.88